Information Last Ob Photographs Calibration Meteogram Network Table Neighbors Monthly Summaries Observation History Wind Roses Custom Wind Roses Data Calendar Satellite Cloud Product Download Terminal Aerodome Forecast

25 February 2024 Observation History, [SUX] SIOUX CITY, timezone: America/Chicago

Select Date: Time Order:

Show METARs   Show High Frequency MADIS

Previous Day
Time Wind
(mph)
Vis.
(mi.)
Sky Cond.
(100s ft)
Present Wx Temperature (ºF) Relative
Humidity
Pressure Snow
Depth
(in)
Precipitation (in.)
Air Dwpt Feels Like 6 hour altimeter
(in.)
sea level
(mb)
1 hr 3 hr 6 hr
Max.Min.
12:00 AMNE 210 CLR
% 29.73
KSUX 250600Z AUTO 05002KT 10SM CLR A2973 RMK MADISHF
12:00 AMNE 210 CLR
% 29.73
KSUX 250600Z AUTO 05002KT 10SM CLR M01/M05 A2973 RMK T10101050 MADISHF
12:05 AMCalm10 CLR
% 29.73
KSUX 250605Z AUTO 00000KT 10SM CLR A2973 RMK MADISHF
12:05 AMCalm10 CLR
% 29.73
KSUX 250605Z AUTO 00000KT 10SM CLR M01/M05 A2973 RMK T10101050 MADISHF
12:10 AME 210 CLR
% 29.73
KSUX 250610Z AUTO 10002KT 10SM CLR 01/M05 A2973 RMK T00101050 MADISHF
12:15 AME 210 CLR
% 29.73
KSUX 250615Z AUTO 08002KT 10SM CLR 01/M05 A2973 RMK T00101050 MADISHF
12:30 AMCalm10 CLR
% 29.73
KSUX 250630Z AUTO 00000KT 10SM CLR 00/M06 A2973 RMK T00001060 MADISHF
12:35 AMCalm10 CLR
% 29.74
KSUX 250635Z AUTO 00000KT 10SM CLR M01/M06 A2974 RMK T10101060 MADISHF
12:40 AMN 510 CLR
% 29.74
KSUX 250640Z AUTO 35004KT 10SM CLR 00/M06 A2974 RMK T00001060 MADISHF
12:45 AMNNW 210 CLR
% 29.73
KSUX 250645Z AUTO 33002KT 10SM CLR 00/M05 A2973 RMK T00001050 MADISHF
12:50 AMCalm10 CLR
% 29.73
KSUX 250650Z AUTO 00000KT 10SM CLR 00/M05 A2973 RMK T00001050 MADISHF
12:52 AMCalm10 CLR
322332 69% 29.731007.50
KSUX 250652Z 00000KT 10SM CLR 00/M05 A2973 RMK AO2 SLP075 T00001050
12:55 AMCalm10 CLR
% 29.74
KSUX 250655Z AUTO 00000KT 10SM CLR M01/M05 A2974 RMK T10101050 MADISHF
1:00 AMCalm10 CLR
% 29.73
KSUX 250700Z AUTO 00000KT 10SM CLR M01/M06 A2973 RMK T10101060 MADISHF
1:20 AMCalm10 CLR
% 29.74
KSUX 250720Z AUTO 00000KT 10SM CLR M01/M05 A2974 RMK T10101050 MADISHF
1:25 AMCalm10 CLR
% 29.73
KSUX 250725Z AUTO 00000KT 10SM CLR M01/M06 A2973 RMK T10101060 MADISHF
1:30 AMCalm10 CLR
% 29.73
KSUX 250730Z AUTO 00000KT 10SM CLR M01/M06 A2973 RMK T10101060 MADISHF
1:35 AMCalm10 CLR
% 29.74
KSUX 250735Z AUTO 00000KT 10SM CLR M01/M06 A2974 RMK T10101060 MADISHF
1:40 AMCalm10 CLR
% 29.73
KSUX 250740Z AUTO 00000KT 10SM CLR M02/M06 A2973 RMK T10201060 MADISHF
1:45 AMCalm10 CLR
% 29.73
KSUX 250745Z AUTO 00000KT 10SM CLR M02/M06 A2973 RMK T10201060 MADISHF
1:50 AMCalm10 CLR
% 29.73
KSUX 250750Z AUTO 00000KT 10SM CLR M02/M06 A2973 RMK T10201060 MADISHF
1:52 AMCalm10 CLR
302230 72% 29.731007.30
KSUX 250752Z 00000KT 10SM CLR M01/M06 A2973 RMK AO2 SLP073 T10111056
1:55 AMCalm10 CLR
% 29.73
KSUX 250755Z AUTO 00000KT 10SM CLR M01/M06 A2973 RMK T10101060 MADISHF
2:00 AMCalm10 CLR
% 29.73
KSUX 250800Z AUTO 00000KT 10SM CLR 00/M06 A2973 RMK T00001060 MADISHF
2:05 AMCalm10 CLR
% 29.73
KSUX 250805Z AUTO 00000KT 10SM CLR 01/M05 A2973 RMK T00101050 MADISHF
2:10 AMCalm10 CLR
% 29.73
KSUX 250810Z AUTO 00000KT 10SM CLR 01/M05 A2973 RMK T00101050 MADISHF
2:20 AMCalm10 CLR
% 29.73
KSUX 250820Z AUTO 00000KT 10SM CLR 00/M05 A2973 RMK T00001050 MADISHF
2:25 AMCalm10 CLR
% 29.73
KSUX 250825Z AUTO 00000KT 10SM CLR M01/M05 A2973 RMK T10101050 MADISHF
2:30 AMCalm10 CLR
% 29.72
KSUX 250830Z AUTO 00000KT 10SM CLR M01/M06 A2972 RMK T10101060 MADISHF
2:35 AMCalm10 CLR
% 29.72
KSUX 250835Z AUTO 00000KT 10SM CLR 00/M05 A2972 RMK T00001050 MADISHF
2:50 AMCalm10 CLR
% 29.72
KSUX 250850Z AUTO 00000KT 10SM CLR M03/M06 A2972 RMK T10301060 MADISHF
2:52 AMCalm10 CLR
272127 78% 29.7210070
KSUX 250852Z 00000KT 10SM CLR M03/M06 A2972 RMK AO2 SLP070 T10281061 58005
2:55 AMS 210 CLR
% 29.72
KSUX 250855Z AUTO 18002KT 10SM CLR M02/M06 A2972 RMK T10201060 MADISHF
3:00 AMSSW 210 CLR
% 29.72
KSUX 250900Z AUTO 19002KT 10SM CLR M03/M06 A2972 RMK T10301060 MADISHF
3:05 AMCalm10 CLR
% 29.73
KSUX 250905Z AUTO 00000KT 10SM CLR M03/M06 A2973 RMK T10301060 MADISHF
3:10 AMM10 CLR
% 29.73
KSUX 250910Z AUTO /////KT 10SM CLR M03/M06 A2973 RMK T10301060 MADISHF
3:15 AMNNW 610 CLR
% 29.73
KSUX 250915Z AUTO 33005KT 10SM CLR M03/M06 A2973 RMK T10301060 MADISHF
3:25 AMW 210 CLR
% 29.72
KSUX 250925Z AUTO 27002KT 10SM CLR M02/M04 A2972 RMK T10201040 VRB03KT MADISHF
3:30 AMSSW 210 CLR
% 29.72
KSUX 250930Z AUTO 21002KT 10SM CLR M03/M05 A2972 RMK T10301050 MADISHF
3:35 AMSW 610 CLR
% 29.72
KSUX 250935Z AUTO 22005KT 10SM CLR M03/M05 A2972 RMK T10301050 MADISHF
3:40 AMSSW 510 CLR
% 29.73
KSUX 250940Z AUTO 20004KT 10SM CLR M03/M06 A2973 RMK T10301060 MADISHF
3:45 AMSSW 510 CLR
% 29.73
KSUX 250945Z AUTO 21004KT 10SM CLR M03/M06 A2973 RMK T10301060 MADISHF
3:50 AMWSW 610 CLR
% 29.72
KSUX 250950Z AUTO 24005KT 10SM CLR M03/M06 A2972 RMK T10301060 MADISHF
3:52 AMWSW 710 CLR
262118 81% 29.721007.10
KSUX 250952Z 25006KT 10SM CLR M03/M06 A2972 RMK AO2 SLP071 T10331061
4:05 AMWNW 210 CLR
% 29.72
KSUX 251005Z AUTO 29002KT 10SM CLR M03/M06 A2972 RMK T10301060 MADISHF
4:10 AMCalm10 CLR
% 29.72
KSUX 251010Z AUTO 00000KT 10SM CLR M03/M06 A2972 RMK T10301060 MADISHF
4:15 AMCalm10 CLR
% 29.72
KSUX 251015Z AUTO 00000KT 10SM CLR M03/M06 A2972 RMK T10301060 MADISHF
4:20 AMCalm10 CLR
% 29.73
KSUX 251020Z AUTO 00000KT 10SM CLR M03/M06 A2973 RMK T10301060 MADISHF
4:25 AMCalm10 CLR
% 29.73
KSUX 251025Z AUTO 00000KT 10SM CLR M03/M06 A2973 RMK T10301060 MADISHF
4:30 AMN 210 CLR
% 29.73
KSUX 251030Z AUTO 35002KT 10SM CLR M02/M05 A2973 RMK T10201050 MADISHF
4:35 AMCalm10 CLR
% 29.73
KSUX 251035Z AUTO 00000KT 10SM CLR M02/M05 A2973 RMK T10201050 MADISHF
4:40 AMCalm10 CLR
% 29.72
KSUX 251040Z AUTO 00000KT 10SM CLR M04/M06 A2972 RMK T10401060 MADISHF
4:50 AMCalm10 CLR
% 29.73
KSUX 251050Z AUTO 00000KT 10SM CLR M01/M05 A2973 RMK T10101050 MADISHF
4:52 AMCalm10 CLR
302230 72% 29.731007.10
KSUX 251052Z 00000KT 10SM CLR M01/M06 A2973 RMK AO2 SLP071 T10111056
4:55 AMNNE 210 CLR
% 29.73
KSUX 251055Z AUTO 02002KT 10SM CLR M02/M06 A2973 RMK T10201060 MADISHF
5:00 AMCalm10 CLR
% 29.73
KSUX 251100Z AUTO 00000KT 10SM CLR M02/M06 A2973 RMK T10201060 MADISHF
5:05 AMCalm10 CLR
% 29.73
KSUX 251105Z AUTO 00000KT 10SM CLR A2973 RMK MADISHF
5:05 AMCalm10 CLR
% 29.73
KSUX 251105Z AUTO 00000KT 10SM CLR M04/M07 A2973 RMK T10401070 MADISHF
5:10 AMN 210 CLR
% 29.73
KSUX 251110Z AUTO 35002KT 10SM CLR M03/M06 A2973 RMK T10301060 MADISHF
5:20 AMN 510 CLR
% 29.73
KSUX 251120Z AUTO 01004KT 10SM CLR M02/M06 A2973 RMK T10201060 MADISHF
5:25 AMN 510 CLR
% 29.73
KSUX 251125Z AUTO 01004KT 10SM CLR M02/M06 A2973 RMK T10201060 MADISHF
5:30 AMN 210 CLR
% 29.73
KSUX 251130Z AUTO 35002KT 10SM CLR M02/M05 A2973 RMK T10201050 MADISHF
5:35 AMN 210 CLR
% 29.73
KSUX 251135Z AUTO 35002KT 10SM CLR M04/M06 A2973 RMK T10401060 MADISHF
5:40 AMN 510 CLR
% 29.73
KSUX 251140Z AUTO 35004KT 10SM CLR M04/M06 A2973 RMK T10401060 MADISHF
5:45 AMN 210 CLR
% 29.73
KSUX 251145Z AUTO 35002KT 10SM CLR M02/M04 A2973 RMK T10201040 MADISHF
5:52 AMCalm10 CLR
232223 34 23 96% 29.741007.70
KSUX 251152Z 00000KT 10SM CLR M05/M06 A2974 RMK AO2 SLP077 T10501056 10011 21050 53005
6:00 AMCalm10 CLR
% 29.74
KSUX 251200Z AUTO 00000KT 10SM CLR A2974 RMK MADISHF
6:00 AMCalm10 CLR
% 29.74
KSUX 251200Z AUTO 00000KT 10SM CLR M06/M07 A2974 RMK T10601070 MADISHF
6:05 AMWSW 210 CLR
% 29.74
KSUX 251205Z AUTO 24002KT 10SM CLR A2974 RMK MADISHF
6:05 AMWSW 210 CLR
% 29.74
KSUX 251205Z AUTO 24002KT 10SM CLR M05/M07 A2974 RMK T10501070 MADISHF
6:10 AMWSW 210 CLR
% 29.74
KSUX 251210Z AUTO 24002KT 10SM CLR A2974 RMK MADISHF
6:10 AMWSW 210 CLR
% 29.74
KSUX 251210Z AUTO 24002KT 10SM CLR M06/M07 A2974 RMK T10601070 MADISHF
6:15 AMSW 210 CLR
% 29.74
KSUX 251215Z AUTO 22002KT 10SM CLR A2974 RMK MADISHF
6:15 AMSW 210 CLR
% 29.74
KSUX 251215Z AUTO 22002KT 10SM CLR M05/M07 A2974 RMK T10501070 MADISHF
6:40 AMWSW 210 CLR
% 29.74
KSUX 251240Z AUTO 24002KT 10SM CLR A2974 RMK MADISHF
6:45 AMCalm10 CLR
% 29.74
KSUX 251245Z AUTO 00000KT 10SM CLR A2974 RMK MADISHF
6:50 AMCalm10 CLR
% 29.74
KSUX 251250Z AUTO 00000KT 10SM CLR M04/M06 A2974 RMK T10401060 MADISHF
6:52 AMW 310 CLR
252221 88% 29.7410080
KSUX 251252Z 26003KT 10SM CLR M04/M06 A2974 RMK AO2 SLP080 T10391056
7:00 AMWNW 210 CLR
% 29.75
KSUX 251300Z AUTO 30002KT 10SM CLR M05/M06 A2975 RMK T10501060 MADISHF
7:05 AMWNW 510 CLR
% 29.75
KSUX 251305Z AUTO 30004KT 10SM CLR M04/M06 A2975 RMK T10401060 MADISHF

The IEM API webservice that provided data to this page. For more details, see documentation.

Data Notes

  • For recent years, this page also optionally shows observations from the MADIS High Frequency METAR dataset. This dataset had a problem with temperatures detailed here.